sensor_id;sensor_type;location;lat;lon;timestamp;pressure;altitude;pressure_sealevel;temperature;humidity
16664;BME280;8445;51.270;9.434;2023-07-13T00:01:53;99343.34;;;18.65;50.58
16664;BME280;8445;51.270;9.434;2023-07-13T00:04:21;99343.34;;;18.65;50.64
16664;BME280;8445;51.270;9.434;2023-07-13T00:06:48;99343.16;;;18.66;51.02
16664;BME280;8445;51.270;9.434;2023-07-13T00:09:19;99347.34;;;18.69;50.85
16664;BME280;8445;51.270;9.434;2023-07-13T00:11:51;99346.50;;;18.69;51.58
16664;BME280;8445;51.270;9.434;2023-07-13T00:14:17;99350.03;;;18.69;51.05
16664;BME280;8445;51.270;9.434;2023-07-13T00:16:43;99343.00;;;18.60;51.82
16664;BME280;8445;51.270;9.434;2023-07-13T00:19:12;99351.03;;;18.51;52.14
16664;BME280;8445;51.270;9.434;2023-07-13T00:21:40;99359.09;;;18.43;51.99
16664;BME280;8445;51.270;9.434;2023-07-13T00:24:08;99360.25;;;18.41;52.17
16664;BME280;8445;51.270;9.434;2023-07-13T00:26:57;99358.75;;;18.38;52.44
16664;BME280;8445;51.270;9.434;2023-07-13T00:29:29;99348.69;;;18.40;53.87
16664;BME280;8445;51.270;9.434;2023-07-13T00:32:05;99345.69;;;18.35;51.91
16664;BME280;8445;51.270;9.434;2023-07-13T00:34:32;99346.34;;;18.29;52.45
16664;BME280;8445;51.270;9.434;2023-07-13T00:36:59;99348.41;;;18.18;53.54
16664;BME280;8445;51.270;9.434;2023-07-13T00:39:24;99347.03;;;18.06;53.66
16664;BME280;8445;51.270;9.434;2023-07-13T00:41:50;99340.50;;;18.00;53.90
16664;BME280;8445;51.270;9.434;2023-07-13T00:44:20;99342.34;;;18.00;53.86
16664;BME280;8445;51.270;9.434;2023-07-13T00:46:48;99340.97;;;17.96;53.77
16664;BME280;8445;51.270;9.434;2023-07-13T00:49:17;99341.97;;;17.86;54.42
16664;BME280;8445;51.270;9.434;2023-07-13T00:54:24;99355.31;;;17.61;55.87
16664;BME280;8445;51.270;9.434;2023-07-13T00:56:53;99345.75;;;17.59;54.88
16664;BME280;8445;51.270;9.434;2023-07-13T00:59:21;99346.59;;;17.59;54.64
16664;BME280;8445;51.270;9.434;2023-07-13T01:01:48;99348.59;;;17.57;54.72
16664;BME280;8445;51.270;9.434;2023-07-13T01:04:13;99353.94;;;17.57;54.92
16664;BME280;8445;51.270;9.434;2023-07-13T01:06:40;99346.94;;;17.56;55.09
16664;BME280;8445;51.270;9.434;2023-07-13T01:09:10;99351.44;;;17.56;55.02
16664;BME280;8445;51.270;9.434;2023-07-13T01:11:36;99346.94;;;17.56;55.13
16664;BME280;8445;51.270;9.434;2023-07-13T01:14:04;99349.09;;;17.61;54.96
16664;BME280;8445;51.270;9.434;2023-07-13T01:16:34;99348.28;;;17.60;56.71
16664;BME280;8445;51.270;9.434;2023-07-13T01:19:00;99352.28;;;17.56;55.36
16664;BME280;8445;51.270;9.434;2023-07-13T01:21:31;99357.63;;;17.56;55.57
16664;BME280;8445;51.270;9.434;2023-07-13T01:23:58;99359.44;;;17.56;55.74
16664;BME280;8445;51.270;9.434;2023-07-13T01:26:24;99357.78;;;17.55;56.25
16664;BME280;8445;51.270;9.434;2023-07-13T01:28:49;99350.28;;;17.58;56.45
16664;BME280;8445;51.270;9.434;2023-07-13T01:31:15;99355.31;;;17.61;56.35
16664;BME280;8445;51.270;9.434;2023-07-13T01:33:41;99353.31;;;17.63;56.08
16664;BME280;8445;51.270;9.434;2023-07-13T01:36:08;99350.59;;;17.55;56.18
16664;BME280;8445;51.270;9.434;2023-07-13T01:38:36;99359.94;;;17.51;56.28
16664;BME280;8445;51.270;9.434;2023-07-13T01:41:03;99359.59;;;17.46;56.40
16664;BME280;8445;51.270;9.434;2023-07-13T01:43:29;99355.56;;;17.42;56.45
16664;BME280;8445;51.270;9.434;2023-07-13T01:45:55;99358.72;;;17.37;56.63
16664;BME280;8445;51.270;9.434;2023-07-13T01:48:20;99356.22;;;17.36;56.73
16664;BME280;8445;51.270;9.434;2023-07-13T01:50:47;99361.56;;;17.36;56.64
16664;BME280;8445;51.270;9.434;2023-07-13T01:53:13;99357.06;;;17.36;57.10
16664;BME280;8445;51.270;9.434;2023-07-13T01:55:39;99359.25;;;17.41;57.50
16664;BME280;8445;51.270;9.434;2023-07-13T01:58:05;99359.25;;;17.41;57.30
16664;BME280;8445;51.270;9.434;2023-07-13T02:00:31;99364.59;;;17.41;58.37
16664;BME280;8445;51.270;9.434;2023-07-13T02:02:56;99360.06;;;17.41;57.39
16664;BME280;8445;51.270;9.434;2023-07-13T02:05:23;99365.09;;;17.44;56.80
16664;BME280;8445;51.270;9.434;2023-07-13T02:07:48;99363.25;;;17.45;57.33
16664;BME280;8445;51.270;9.434;2023-07-13T02:10:14;99371.97;;;17.47;57.03
16664;BME280;8445;51.270;9.434;2023-07-13T02:12:41;99363.94;;;17.47;57.01
16664;BME280;8445;51.270;9.434;2023-07-13T02:15:08;99346.22;;;17.46;57.20
16664;BME280;8445;51.270;9.434;2023-07-13T02:17:35;99355.72;;;17.40;57.43
16664;BME280;8445;51.270;9.434;2023-07-13T02:20:02;99352.53;;;17.37;57.33
16664;BME280;8445;51.270;9.434;2023-07-13T02:22:28;99343.75;;;17.18;57.80
16664;BME280;8445;51.270;9.434;2023-07-13T02:24:56;99340.72;;;17.04;58.10
16664;BME280;8445;51.270;9.434;2023-07-13T02:27:21;99339.06;;;16.85;58.36
16664;BME280;8445;51.270;9.434;2023-07-13T02:29:49;99344.78;;;16.64;58.27
16664;BME280;8445;51.270;9.434;2023-07-13T02:32:17;99339.97;;;16.41;58.74
16664;BME280;8445;51.270;9.434;2023-07-13T02:34:43;99342.31;;;16.18;58.98
16664;BME280;8445;51.270;9.434;2023-07-13T02:37:08;99334.59;;;15.97;59.39
16664;BME280;8445;51.270;9.434;2023-07-13T02:39:34;99333.56;;;15.90;60.38
16664;BME280;8445;51.270;9.434;2023-07-13T02:42:02;99336.88;;;15.92;59.64
16664;BME280;8445;51.270;9.434;2023-07-13T02:44:28;99331.19;;;15.87;60.86
16664;BME280;8445;51.270;9.434;2023-07-13T02:46:55;99325.13;;;15.84;60.41
16664;BME280;8445;51.270;9.434;2023-07-13T02:49:20;99332.97;;;15.86;59.16
16664;BME280;8445;51.270;9.434;2023-07-13T02:51:46;99330.19;;;15.88;59.38
16664;BME280;8445;51.270;9.434;2023-07-13T02:54:12;99333.84;;;15.87;59.44
16664;BME280;8445;51.270;9.434;2023-07-13T02:56:40;99336.88;;;15.92;59.33
16664;BME280;8445;51.270;9.434;2023-07-13T02:59:06;99336.88;;;15.92;59.16
16664;BME280;8445;51.270;9.434;2023-07-13T03:01:31;99333.28;;;16.19;58.13
16664;BME280;8445;51.270;9.434;2023-07-13T03:04:01;99337.47;;;16.22;57.92
16664;BME280;8445;51.270;9.434;2023-07-13T03:06:27;99338.09;;;16.15;58.89
16664;BME280;8445;51.270;9.434;2023-07-13T03:08:56;99347.16;;;16.23;58.51
16664;BME280;8445;51.270;9.434;2023-07-13T03:11:22;99348.00;;;16.41;58.16
16664;BME280;8445;51.270;9.434;2023-07-13T03:14:03;99347.31;;;16.39;57.99
16664;BME280;8445;51.270;9.434;2023-07-13T03:16:32;99346.50;;;16.47;58.04
16664;BME280;8445;51.270;9.434;2023-07-13T03:18:58;99357.88;;;16.49;58.58
16664;BME280;8445;51.270;9.434;2023-07-13T03:21:24;99358.97;;;16.38;58.28
16664;BME280;8445;51.270;9.434;2023-07-13T03:23:50;99359.50;;;16.24;58.54
16664;BME280;8445;51.270;9.434;2023-07-13T03:26:17;99358.97;;;16.02;60.94
16664;BME280;8445;51.270;9.434;2023-07-13T03:28:43;99364.88;;;15.88;59.62
16664;BME280;8445;51.270;9.434;2023-07-13T03:31:26;99368.72;;;15.75;63.53
16664;BME280;8445;51.270;9.434;2023-07-13T03:33:54;99368.81;;;15.55;59.85
16664;BME280;8445;51.270;9.434;2023-07-13T03:36:23;99372.53;;;15.45;61.10
16664;BME280;8445;51.270;9.434;2023-07-13T03:38:59;99370.00;;;15.43;63.68
16664;BME280;8445;51.270;9.434;2023-07-13T03:41:33;99373.56;;;15.34;60.84
16664;BME280;8445;51.270;9.434;2023-07-13T03:43:59;99374.16;;;15.27;61.47
16664;BME280;8445;51.270;9.434;2023-07-13T03:46:26;99372.09;;;15.21;62.06
16664;BME280;8445;51.270;9.434;2023-07-13T03:48:52;99389.75;;;15.22;63.89
16664;BME280;8445;51.270;9.434;2023-07-13T03:51:18;99387.63;;;15.26;61.69
16664;BME280;8445;51.270;9.434;2023-07-13T03:53:46;99397.88;;;15.21;62.74
16664;BME280;8445;51.270;9.434;2023-07-13T03:56:14;99398.56;;;15.23;62.71
16664;BME280;8445;51.270;9.434;2023-07-13T03:58:42;99400.94;;;15.26;61.94
16664;BME280;8445;51.270;9.434;2023-07-13T04:01:15;99397.69;;;15.32;61.16
16664;BME280;8445;51.270;9.434;2023-07-13T04:03:42;99398.22;;;15.36;61.59
16664;BME280;8445;51.270;9.434;2023-07-13T04:06:25;99404.22;;;15.48;63.55
16664;BME280;8445;51.270;9.434;2023-07-13T04:08:53;99402.38;;;15.48;62.76
16664;BME280;8445;51.270;9.434;2023-07-13T04:11:21;99406.53;;;15.61;60.72
16664;BME280;8445;51.270;9.434;2023-07-13T04:13:47;99409.09;;;15.80;59.71
16664;BME280;8445;51.270;9.434;2023-07-13T04:16:13;99413.56;;;15.90;60.05
16664;BME280;8445;51.270;9.434;2023-07-13T04:18:39;99420.41;;;15.92;60.25
16664;BME280;8445;51.270;9.434;2023-07-13T04:21:07;99418.28;;;15.96;60.61
16664;BME280;8445;51.270;9.434;2023-07-13T04:23:33;99423.91;;;15.93;60.83
16664;BME280;8445;51.270;9.434;2023-07-13T04:25:59;99425.59;;;15.94;61.03
16664;BME280;8445;51.270;9.434;2023-07-13T04:28:25;99421.94;;;15.95;60.94
16664;BME280;8445;51.270;9.434;2023-07-13T04:30:51;99424.59;;;15.95;62.44
16664;BME280;8445;51.270;9.434;2023-07-13T04:33:17;99428.50;;;16.00;61.40
16664;BME280;8445;51.270;9.434;2023-07-13T04:35:43;99428.91;;;16.06;61.33
16664;BME280;8445;51.270;9.434;2023-07-13T04:38:15;99429.59;;;16.08;61.70
16664;BME280;8445;51.270;9.434;2023-07-13T04:40:45;99430.50;;;15.98;65.24
16664;BME280;8445;51.270;9.434;2023-07-13T04:43:10;99429.34;;;16.01;62.90
16664;BME280;8445;51.270;9.434;2023-07-13T04:45:36;99430.59;;;16.07;62.27
16664;BME280;8445;51.270;9.434;2023-07-13T04:48:02;99430.81;;;16.13;62.14
16664;BME280;8445;51.270;9.434;2023-07-13T04:50:27;99439.50;;;16.15;61.90
16664;BME280;8445;51.270;9.434;2023-07-13T04:52:53;99437.00;;;16.14;62.03
16664;BME280;8445;51.270;9.434;2023-07-13T04:55:19;99444.44;;;16.10;62.77
16664;BME280;8445;51.270;9.434;2023-07-13T04:57:45;99434.16;;;16.15;62.25
16664;BME280;8445;51.270;9.434;2023-07-13T05:00:12;99440.88;;;16.20;62.39
16664;BME280;8445;51.270;9.434;2023-07-13T05:02:39;99443.25;;;16.23;62.33
16664;BME280;8445;51.270;9.434;2023-07-13T05:05:05;99438.59;;;16.25;62.16
16664;BME280;8445;51.270;9.434;2023-07-13T05:07:31;99440.50;;;16.33;62.35
16664;BME280;8445;51.270;9.434;2023-07-13T05:09:59;99445.78;;;16.42;62.22
16664;BME280;8445;51.270;9.434;2023-07-13T05:12:25;99443.31;;;16.49;62.32
16664;BME280;8445;51.270;9.434;2023-07-13T05:14:51;99442.53;;;16.57;62.16
16664;BME280;8445;51.270;9.434;2023-07-13T05:17:16;99452.00;;;16.69;62.15
16664;BME280;8445;51.270;9.434;2023-07-13T05:19:42;99450.38;;;16.77;61.52
16664;BME280;8445;51.270;9.434;2023-07-13T05:22:08;99444.03;;;16.78;62.21
16664;BME280;8445;51.270;9.434;2023-07-13T05:24:33;99447.09;;;16.83;61.43
16664;BME280;8445;51.270;9.434;2023-07-13T05:26:59;99450.97;;;16.88;61.09
16664;BME280;8445;51.270;9.434;2023-07-13T05:29:24;99447.28;;;16.89;61.74
16664;BME280;8445;51.270;9.434;2023-07-13T05:31:50;99442.22;;;16.96;61.24
16664;BME280;8445;51.270;9.434;2023-07-13T05:34:16;99440.50;;;16.95;60.95
16664;BME280;8445;51.270;9.434;2023-07-13T05:36:42;99440.28;;;17.07;60.76
16664;BME280;8445;51.270;9.434;2023-07-13T05:39:08;99439.63;;;17.13;60.63
16664;BME280;8445;51.270;9.434;2023-07-13T05:41:35;99437.19;;;17.19;60.41
16664;BME280;8445;51.270;9.434;2023-07-13T05:44:00;99446.75;;;17.30;60.01
16664;BME280;8445;51.270;9.434;2023-07-13T05:46:26;99444.94;;;17.31;60.57
16664;BME280;8445;51.270;9.434;2023-07-13T05:48:52;99444.81;;;17.41;59.97
16664;BME280;8445;51.270;9.434;2023-07-13T05:51:17;99446.47;;;17.42;60.02
16664;BME280;8445;51.270;9.434;2023-07-13T05:53:43;99450.88;;;17.51;59.96
16664;BME280;8445;51.270;9.434;2023-07-13T05:56:08;99447.19;;;17.52;59.66
16664;BME280;8445;51.270;9.434;2023-07-13T05:58:34;99454.94;;;17.63;59.46
16664;BME280;8445;51.270;9.434;2023-07-13T06:01:06;99456.63;;;17.73;59.34
16664;BME280;8445;51.270;9.434;2023-07-13T06:03:32;99449.97;;;17.77;59.15
16664;BME280;8445;51.270;9.434;2023-07-13T06:05:58;99447.66;;;17.90;58.61
16664;BME280;8445;51.270;9.434;2023-07-13T06:08:26;99454.06;;;17.98;58.56
16664;BME280;8445;51.270;9.434;2023-07-13T06:10:51;99443.19;;;17.99;58.47
16664;BME280;8445;51.270;9.434;2023-07-13T06:13:17;99448.09;;;18.12;58.19
16664;BME280;8445;51.270;9.434;2023-07-13T06:15:48;99455.94;;;18.14;58.00
16664;BME280;8445;51.270;9.434;2023-07-13T06:18:14;99456.47;;;18.17;57.61
16664;BME280;8445;51.270;9.434;2023-07-13T06:20:40;99457.50;;;18.25;58.17
16664;BME280;8445;51.270;9.434;2023-07-13T06:23:05;99459.84;;;18.36;57.68
16664;BME280;8445;51.270;9.434;2023-07-13T06:25:31;99463.03;;;18.40;57.45
16664;BME280;8445;51.270;9.434;2023-07-13T06:27:56;99466.22;;;18.43;56.91
16664;BME280;8445;51.270;9.434;2023-07-13T06:30:22;99468.06;;;18.51;57.06
16664;BME280;8445;51.270;9.434;2023-07-13T06:32:47;99476.63;;;18.63;56.90
16664;BME280;8445;51.270;9.434;2023-07-13T06:35:13;99475.94;;;18.69;56.68
16664;BME280;8445;51.270;9.434;2023-07-13T06:37:38;99482.47;;;18.75;56.58
16664;BME280;8445;51.270;9.434;2023-07-13T06:40:04;99486.16;;;18.82;56.17
16664;BME280;8445;51.270;9.434;2023-07-13T06:42:31;99477.13;;;18.83;56.19
16664;BME280;8445;51.270;9.434;2023-07-13T06:44:56;99482.63;;;18.90;56.40
16664;BME280;8445;51.270;9.434;2023-07-13T06:47:22;99471.56;;;18.93;55.80
16664;BME280;8445;51.270;9.434;2023-07-13T06:49:47;99475.13;;;19.02;55.98
16664;BME280;8445;51.270;9.434;2023-07-13T06:52:13;99479.47;;;19.03;56.03
16664;BME280;8445;51.270;9.434;2023-07-13T06:54:39;99481.50;;;19.09;56.11
16664;BME280;8445;51.270;9.434;2023-07-13T06:57:04;99473.25;;;19.19;55.23
16664;BME280;8445;51.270;9.434;2023-07-13T06:59:30;99462.66;;;19.25;55.04
16664;BME280;8445;51.270;9.434;2023-07-13T07:01:55;99462.31;;;19.37;55.05
16664;BME280;8445;51.270;9.434;2023-07-13T07:04:21;99456.94;;;19.37;54.12
16664;BME280;8445;51.270;9.434;2023-07-13T07:06:47;99468.84;;;19.43;55.09
16664;BME280;8445;51.270;9.434;2023-07-13T07:09:12;99463.09;;;19.54;55.02
16664;BME280;8445;51.270;9.434;2023-07-13T07:11:39;99467.59;;;19.62;54.60
16664;BME280;8445;51.270;9.434;2023-07-13T07:14:04;99456.66;;;19.72;53.55
16664;BME280;8445;51.270;9.434;2023-07-13T07:16:29;99461.97;;;19.88;53.85
16664;BME280;8445;51.270;9.434;2023-07-13T07:18:55;99456.59;;;19.96;53.52
16664;BME280;8445;51.270;9.434;2023-07-13T07:21:21;99464.72;;;20.11;53.11
16664;BME280;8445;51.270;9.434;2023-07-13T07:23:48;99460.47;;;20.17;53.13
16664;BME280;8445;51.270;9.434;2023-07-13T07:26:14;99457.44;;;20.20;53.00
16664;BME280;8445;51.270;9.434;2023-07-13T07:28:39;99462.28;;;20.25;52.16
16664;BME280;8445;51.270;9.434;2023-07-13T07:31:05;99460.44;;;20.49;52.94
16664;BME280;8445;51.270;9.434;2023-07-13T07:33:32;99465.38;;;20.60;52.16
16664;BME280;8445;51.270;9.434;2023-07-13T07:35:58;99465.41;;;20.75;52.02
16664;BME280;8445;51.270;9.434;2023-07-13T07:38:24;99467.00;;;20.93;52.40
16664;BME280;8445;51.270;9.434;2023-07-13T07:40:49;99467.66;;;21.10;51.22
16664;BME280;8445;51.270;9.434;2023-07-13T07:43:15;99471.13;;;21.18;51.65
16664;BME280;8445;51.270;9.434;2023-07-13T07:45:40;99479.81;;;21.21;50.22
16664;BME280;8445;51.270;9.434;2023-07-13T07:48:07;99470.09;;;21.20;51.64
16664;BME280;8445;51.270;9.434;2023-07-13T07:50:33;99473.53;;;21.13;50.31
16664;BME280;8445;51.270;9.434;2023-07-13T07:52:58;99469.34;;;21.26;49.69
16664;BME280;8445;51.270;9.434;2023-07-13T07:55:25;99471.31;;;21.32;50.79
16664;BME280;8445;51.270;9.434;2023-07-13T07:57:54;99472.53;;;21.44;50.89
16664;BME280;8445;51.270;9.434;2023-07-13T08:00:20;99473.16;;;21.46;48.81
16664;BME280;8445;51.270;9.434;2023-07-13T08:02:47;99478.84;;;21.67;50.45
16664;BME280;8445;51.270;9.434;2023-07-13T08:05:13;99478.84;;;21.52;48.77
16664;BME280;8445;51.270;9.434;2023-07-13T08:07:39;99485.31;;;21.42;49.90
16664;BME280;8445;51.270;9.434;2023-07-13T08:10:08;99485.16;;;21.74;48.65
16664;BME280;8445;51.270;9.434;2023-07-13T08:12:38;99482.44;;;21.89;50.18
16664;BME280;8445;51.270;9.434;2023-07-13T08:15:06;99474.09;;;21.84;48.12
16664;BME280;8445;51.270;9.434;2023-07-13T08:17:31;99482.22;;;22.05;49.41
16664;BME280;8445;51.270;9.434;2023-07-13T08:19:57;99476.91;;;22.12;49.22
16664;BME280;8445;51.270;9.434;2023-07-13T08:22:23;99485.72;;;22.21;48.04
16664;BME280;8445;51.270;9.434;2023-07-13T08:24:49;99481.66;;;22.47;49.34
16664;BME280;8445;51.270;9.434;2023-07-13T08:27:22;99471.31;;;22.72;48.71
16664;BME280;8445;51.270;9.434;2023-07-13T08:29:48;99476.81;;;23.07;48.45
16664;BME280;8445;51.270;9.434;2023-07-13T08:32:14;99465.41;;;23.12;47.18
16664;BME280;8445;51.270;9.434;2023-07-13T08:34:40;99472.69;;;23.40;45.27
16664;BME280;8445;51.270;9.434;2023-07-13T08:37:06;99469.44;;;23.51;48.39
16664;BME280;8445;51.270;9.434;2023-07-13T08:39:33;99467.00;;;23.70;48.00
16664;BME280;8445;51.270;9.434;2023-07-13T08:42:07;99465.91;;;23.58;45.20
16664;BME280;8445;51.270;9.434;2023-07-13T08:44:57;99469.53;;;23.78;44.51
16664;BME280;8445;51.270;9.434;2023-07-13T08:47:31;99481.84;;;23.88;46.43
16664;BME280;8445;51.270;9.434;2023-07-13T08:49:58;99475.97;;;24.12;46.68
16664;BME280;8445;51.270;9.434;2023-07-13T08:52:36;99479.06;;;24.09;42.26
16664;BME280;8445;51.270;9.434;2023-07-13T08:55:13;99478.84;;;24.18;44.03
16664;BME280;8445;51.270;9.434;2023-07-13T08:57:41;99474.75;;;24.35;45.76
16664;BME280;8445;51.270;9.434;2023-07-13T09:00:12;99473.47;;;24.24;46.17
16664;BME280;8445;51.270;9.434;2023-07-13T09:02:53;99467.84;;;24.26;42.29
16664;BME280;8445;51.270;9.434;2023-07-13T09:05:22;99476.03;;;24.53;45.53
16664;BME280;8445;51.270;9.434;2023-07-13T09:08:38;99474.38;;;24.65;44.43
16664;BME280;8445;51.270;9.434;2023-07-13T09:10:49;99475.03;;;25.21;41.95
16664;BME280;8445;51.270;9.434;2023-07-13T09:15:51;99474.19;;;25.14;44.93
16664;BME280;8445;51.270;9.434;2023-07-13T09:20:55;99473.03;;;24.21;41.14
16664;BME280;8445;51.270;9.434;2023-07-13T09:23:24;99470.22;;;24.56;42.90
16664;BME280;8445;51.270;9.434;2023-07-13T09:26:00;99465.69;;;24.83;41.96
16664;BME280;8445;51.270;9.434;2023-07-13T09:28:28;99465.66;;;25.17;43.49
16664;BME280;8445;51.270;9.434;2023-07-13T09:31:01;99465.63;;;25.24;38.87
16664;BME280;8445;51.270;9.434;2023-07-13T09:33:28;99471.00;;;25.57;44.23
16664;BME280;8445;51.270;9.434;2023-07-13T09:35:59;99478.44;;;25.82;41.95
16664;BME280;8445;51.270;9.434;2023-07-13T09:38:27;99484.38;;;25.98;42.58
16664;BME280;8445;51.270;9.434;2023-07-13T09:44:11;99463.13;;;25.15;35.75
16664;BME280;8445;51.270;9.434;2023-07-13T09:46:46;99475.59;;;25.43;37.46
16664;BME280;8445;51.270;9.434;2023-07-13T09:49:12;99479.28;;;25.69;41.26
16664;BME280;8445;51.270;9.434;2023-07-13T09:51:40;99478.09;;;26.11;36.85
16664;BME280;8445;51.270;9.434;2023-07-13T09:54:18;99469.06;;;26.24;34.95
16664;BME280;8445;51.270;9.434;2023-07-13T09:56:43;99473.81;;;26.35;40.61
16664;BME280;8445;51.270;9.434;2023-07-13T09:59:21;99476.28;;;26.69;37.79
16664;BME280;8445;51.270;9.434;2023-07-13T10:01:49;99477.41;;;26.86;40.65
16664;BME280;8445;51.270;9.434;2023-07-13T10:04:18;99480.88;;;27.19;40.19
16664;BME280;8445;51.270;9.434;2023-07-13T10:06:45;99464.13;;;27.22;36.99
16664;BME280;8445;51.270;9.434;2023-07-13T10:09:15;99477.25;;;27.06;35.10
16664;BME280;8445;51.270;9.434;2023-07-13T10:11:41;99477.69;;;27.03;40.20
16664;BME280;8445;51.270;9.434;2023-07-13T10:14:21;99474.59;;;27.44;33.75
16664;BME280;8445;51.270;9.434;2023-07-13T10:17:00;99475.66;;;27.80;35.97
16664;BME280;8445;51.270;9.434;2023-07-13T10:19:31;99476.22;;;28.01;37.14
16664;BME280;8445;51.270;9.434;2023-07-13T10:22:17;99476.00;;;28.02;35.08
16664;BME280;8445;51.270;9.434;2023-07-13T10:24:47;99465.94;;;28.21;34.71
16664;BME280;8445;51.270;9.434;2023-07-13T10:27:16;99482.78;;;28.42;38.41
16664;BME280;8445;51.270;9.434;2023-07-13T10:30:13;99472.84;;;29.02;32.69
16664;BME280;8445;51.270;9.434;2023-07-13T10:32:40;99479.09;;;28.67;36.96
16664;BME280;8445;51.270;9.434;2023-07-13T10:35:10;99479.75;;;28.50;33.90
16664;BME280;8445;51.270;9.434;2023-07-13T10:40:14;99489.50;;;28.09;37.73
16664;BME280;8445;51.270;9.434;2023-07-13T10:42:45;99491.03;;;28.23;36.68
16664;BME280;8445;51.270;9.434;2023-07-13T10:45:31;99491.50;;;27.83;33.09
16664;BME280;8445;51.270;9.434;2023-07-13T10:47:59;99493.50;;;27.57;36.25
16664;BME280;8445;51.270;9.434;2023-07-13T10:50:26;99497.03;;;27.32;36.86
16664;BME280;8445;51.270;9.434;2023-07-13T10:52:55;99490.78;;;26.88;35.87
16664;BME280;8445;51.270;9.434;2023-07-13T10:58:24;99492.81;;;26.92;35.47
16664;BME280;8445;51.270;9.434;2023-07-13T11:03:22;99502.34;;;26.44;36.60
16664;BME280;8445;51.270;9.434;2023-07-13T11:05:49;99501.25;;;26.77;36.31
16664;BME280;8445;51.270;9.434;2023-07-13T11:08:34;99507.22;;;27.18;33.08
16664;BME280;8445;51.270;9.434;2023-07-13T11:18:47;99504.69;;;27.98;33.52
16664;BME280;8445;51.270;9.434;2023-07-13T11:21:21;99498.47;;;27.60;31.88
16664;BME280;8445;51.270;9.434;2023-07-13T11:23:53;99501.63;;;27.94;34.44
16664;BME280;8445;51.270;9.434;2023-07-13T11:29:27;99504.00;;;28.82;32.09
16664;BME280;8445;51.270;9.434;2023-07-13T11:32:01;99498.47;;;28.28;32.43
16664;BME280;8445;51.270;9.434;2023-07-13T11:34:33;99490.81;;;27.50;33.78
16664;BME280;8445;51.270;9.434;2023-07-13T11:37:01;99489.91;;;27.13;36.24
16664;BME280;8445;51.270;9.434;2023-07-13T11:39:36;99494.63;;;27.24;35.64
16664;BME280;8445;51.270;9.434;2023-07-13T11:42:05;99486.94;;;27.40;35.57
16664;BME280;8445;51.270;9.434;2023-07-13T11:44:33;99482.22;;;27.54;35.69
16664;BME280;8445;51.270;9.434;2023-07-13T11:47:10;99483.59;;;27.63;35.57
16664;BME280;8445;51.270;9.434;2023-07-13T11:49:45;99478.94;;;28.50;33.92
16664;BME280;8445;51.270;9.434;2023-07-13T11:52:17;99484.41;;;28.74;34.24
16664;BME280;8445;51.270;9.434;2023-07-13T11:54:50;99492.13;;;28.77;32.52
16664;BME280;8445;51.270;9.434;2023-07-13T11:57:30;99487.75;;;28.76;34.77
16664;BME280;8445;51.270;9.434;2023-07-13T12:00:00;99491.56;;;28.44;32.60
16664;BME280;8445;51.270;9.434;2023-07-13T12:02:32;99490.28;;;28.16;31.73
16664;BME280;8445;51.270;9.434;2023-07-13T12:05:00;99488.22;;;28.11;32.15
16664;BME280;8445;51.270;9.434;2023-07-13T12:07:29;99493.25;;;27.77;32.72
16664;BME280;8445;51.270;9.434;2023-07-13T12:10:03;99495.75;;;27.60;32.49
16664;BME280;8445;51.270;9.434;2023-07-13T12:12:36;99488.91;;;28.07;33.55
16664;BME280;8445;51.270;9.434;2023-07-13T12:15:07;99499.34;;;28.10;32.56
16664;BME280;8445;51.270;9.434;2023-07-13T12:17:34;99506.78;;;28.33;34.16
16664;BME280;8445;51.270;9.434;2023-07-13T12:20:03;99506.81;;;28.45;34.08
16664;BME280;8445;51.270;9.434;2023-07-13T12:22:32;99503.47;;;28.31;33.99
16664;BME280;8445;51.270;9.434;2023-07-13T12:24:59;99506.75;;;28.64;34.13
16664;BME280;8445;51.270;9.434;2023-07-13T12:27:27;99503.25;;;28.75;32.74
16664;BME280;8445;51.270;9.434;2023-07-13T12:29:59;99503.22;;;28.33;32.87
16664;BME280;8445;51.270;9.434;2023-07-13T12:32:26;99500.44;;;28.51;33.83
16664;BME280;8445;51.270;9.434;2023-07-13T12:34:57;99504.00;;;29.06;32.62
16664;BME280;8445;51.270;9.434;2023-07-13T12:37:28;99509.31;;;29.72;33.24
16664;BME280;8445;51.270;9.434;2023-07-13T12:39:56;99511.81;;;29.62;32.58
16664;BME280;8445;51.270;9.434;2023-07-13T12:45:17;99516.34;;;29.56;29.84
16664;BME280;8445;51.270;9.434;2023-07-13T12:47:47;99512.47;;;29.93;32.36
16664;BME280;8445;51.270;9.434;2023-07-13T12:50:17;99521.78;;;30.21;30.86
16664;BME280;8445;51.270;9.434;2023-07-13T12:52:44;99520.72;;;29.34;32.40
16664;BME280;8445;51.270;9.434;2023-07-13T12:55:17;99518.69;;;29.53;30.11
16664;BME280;8445;51.270;9.434;2023-07-13T12:57:55;99522.28;;;29.53;29.58
16664;BME280;8445;51.270;9.434;2023-07-13T13:00:33;99529.13;;;29.56;30.76
16664;BME280;8445;51.270;9.434;2023-07-13T13:03:07;99516.69;;;29.72;30.56
16664;BME280;8445;51.270;9.434;2023-07-13T13:05:38;99522.47;;;29.99;32.77
16664;BME280;8445;51.270;9.434;2023-07-13T13:08:04;99522.94;;;29.72;30.62
16664;BME280;8445;51.270;9.434;2023-07-13T13:10:30;99528.94;;;30.10;30.07
16664;BME280;8445;51.270;9.434;2023-07-13T13:13:00;99524.88;;;30.13;29.93
16664;BME280;8445;51.270;9.434;2023-07-13T13:15:29;99523.97;;;29.83;31.47
16664;BME280;8445;51.270;9.434;2023-07-13T13:17:56;99522.41;;;30.11;31.96
16664;BME280;8445;51.270;9.434;2023-07-13T13:20:24;99539.31;;;29.72;31.35
16664;BME280;8445;51.270;9.434;2023-07-13T13:22:51;99533.94;;;29.90;31.81
16664;BME280;8445;51.270;9.434;2023-07-13T13:25:18;99535.38;;;29.92;31.80
16664;BME280;8445;51.270;9.434;2023-07-13T13:27:48;99536.16;;;30.05;31.81
16664;BME280;8445;51.270;9.434;2023-07-13T13:30:16;99537.16;;;29.75;32.15
16664;BME280;8445;51.270;9.434;2023-07-13T13:32:47;99535.75;;;29.12;32.57
16664;BME280;8445;51.270;9.434;2023-07-13T13:35:18;99541.22;;;29.36;31.92
16664;BME280;8445;51.270;9.434;2023-07-13T13:37:50;99536.00;;;29.23;32.13
16664;BME280;8445;51.270;9.434;2023-07-13T13:40:19;99532.16;;;29.00;30.37
16664;BME280;8445;51.270;9.434;2023-07-13T13:42:47;99541.06;;;29.19;31.10
16664;BME280;8445;51.270;9.434;2023-07-13T13:45:12;99534.09;;;29.59;31.53
16664;BME280;8445;51.270;9.434;2023-07-13T13:47:39;99532.06;;;29.90;31.60
16664;BME280;8445;51.270;9.434;2023-07-13T13:50:16;99536.81;;;29.11;30.38